Time;durP1;ratioP1;P1;durP2;ratioP2;P2;SDS_P1;SDS_P2;PMS_P1;PMS_P2;Temp;Humidity;BMP_temperature;BMP_pressure;BME280_temperature;BME280_humidity;BME280_pressure;Samples;Min_cycle;Max_cycle;Signal;HPM_P1;HPM_P2
2021/09/08 00:01:40;;;;;;;;;27.00;22.00;;;;;11.19;94.10;100414.22;6750014;19;2498112;-57
2021/09/08 00:04:09;;;;;;;;;24.50;22.00;;;;;11.08;93.85;100416.59;6745256;19;2845991;-58
2021/09/08 00:06:37;;;;;;;;;22.50;21.00;;;;;10.84;92.66;100417.84;6747979;19;2832465;-57
2021/09/08 00:09:05;;;;;;;;;22.00;21.00;;;;;10.31;95.06;100420.44;6749981;19;2498115;-57
2021/09/08 00:11:32;;;;;;;;;17.50;16.50;;;;;10.47;95.70;100425.94;6750329;19;2487775;-59
2021/09/08 00:14:01;;;;;;;;;29.00;25.00;;;;;10.42;95.53;100416.38;6745931;19;2850233;-57
2021/09/08 00:16:29;;;;;;;;;27.00;24.00;;;;;10.42;95.69;100419.06;6747333;19;2837765;-57
2021/09/08 00:18:58;;;;;;;;;26.00;20.00;;;;;10.63;94.31;100426.03;6746966;19;2840826;-57
2021/09/08 00:21:26;;;;;;;;;21.50;21.50;;;;;10.61;94.28;100414.53;6748003;19;2833539;-57
2021/09/08 00:23:54;;;;;;;;;25.50;21.00;;;;;10.67;93.60;100422.28;6745081;19;2493930;-57
2021/09/08 00:26:24;;;;;;;;;29.50;26.00;;;;;10.70;92.87;100414.06;6747407;19;2849119;-57
2021/09/08 00:28:52;;;;;;;;;22.00;20.00;;;;;10.60;93.78;100414.59;6746240;19;2498112;-57
2021/09/08 00:31:21;;;;;;;;;20.33;18.00;;;;;10.71;93.80;100410.41;6747518;19;3536604;-57
2021/09/08 00:33:48;;;;;;;;;26.00;21.50;;;;;10.47;95.37;100411.66;6778031;19;2498171;-57
2021/09/08 00:36:17;;;;;;;;;25.50;22.00;;;;;10.72;94.38;100411.31;6747228;19;2841874;-57
2021/09/08 00:38:44;;;;;;;;;24.50;21.50;;;;;10.52;95.19;100410.47;6745916;19;2485652;-57
2021/09/08 00:41:13;;;;;;;;;26.00;21.00;;;;;10.67;95.06;100416.03;6747734;19;2834557;-57
2021/09/08 00:43:41;;;;;;;;;22.50;21.00;;;;;10.75;92.85;100420.06;6745085;19;2496136;-57
2021/09/08 00:46:08;;;;;;;;;29.50;23.50;;;;;10.35;94.74;100414.94;6744418;19;2493929;-57
2021/09/08 00:48:37;;;;;;;;;23.00;21.50;;;;;10.47;93.67;100419.69;6744932;19;2843940;-57
2021/09/08 00:51:06;;;;;;;;;25.00;21.00;;;;;10.37;94.46;100418.41;6746972;19;2839812;-57
2021/09/08 00:53:35;;;;;;;;;33.50;23.50;;;;;10.31;95.45;100425.81;6745163;19;2859547;-57
2021/09/08 00:56:05;;;;;;;;;27.50;24.00;;;;;10.28;95.91;100431.34;6743242;19;2849127;-57
2021/09/08 00:58:34;;;;;;;;;24.50;22.00;;;;;10.51;94.07;100421.31;6740557;19;2829428;-57
2021/09/08 01:01:02;;;;;;;;;25.50;22.00;;;;;10.62;93.85;100429.69;6747205;19;2832473;-56
2021/09/08 01:03:31;;;;;;;;;27.50;25.50;;;;;10.33;94.61;100437.34;6748319;19;2842935;-58
2021/09/08 01:05:59;;;;;;;;;28.00;23.00;;;;;10.30;95.06;100434.81;6747263;19;2839757;-57
2021/09/08 01:08:28;;;;;;;;;26.00;20.50;;;;;10.52;94.47;100431.09;6743076;19;2839785;-57
2021/09/08 01:10:56;;;;;;;;;25.00;23.00;;;;;10.16;95.64;100428.34;6745531;19;2491878;-56
2021/09/08 01:13:25;;;;;;;;;20.50;20.00;;;;;10.31;94.76;100433.88;6741968;19;2837678;-57
2021/09/08 01:16:02;;;;;;;;;24.00;22.00;;;;;10.52;93.95;100436.47;6747105;19;2835578;-57
2021/09/08 01:18:30;;;;;;;;;25.00;21.00;;;;;10.43;94.86;100432.41;6747196;19;2843932;-57
2021/09/08 01:20:59;;;;;;;;;23.67;18.67;;;;;10.82;93.90;100433.19;6747425;19;3566839;-57
2021/09/08 01:23:26;;;;;;;;;25.00;22.50;;;;;10.71;93.98;100437.28;6744468;19;2496044;-57
2021/09/08 01:25:54;;;;;;;;;24.00;24.00;;;;;10.96;92.34;100428.00;6745272;19;2498103;-57
2021/09/08 01:28:23;;;;;;;;;19.50;19.50;;;;;10.82;93.41;100435.88;6742926;19;2836628;-57
2021/09/08 01:30:56;;;;;;;;;23.00;22.00;;;;;10.07;95.94;100430.53;6747114;19;2841832;-57
2021/09/08 01:33:25;;;;;;;;;19.00;18.00;;;;;9.93;97.38;100437.50;6745768;19;2828312;-57
2021/09/08 01:35:53;;;;;;;;;24.00;22.00;;;;;9.86;96.40;100442.28;6744283;19;2845052;-57
2021/09/08 01:38:22;;;;;;;;;27.00;23.00;;;;;9.67;97.37;100444.94;6742195;19;2853304;-57
2021/09/08 01:40:51;;;;;;;;;23.00;21.00;;;;;10.31;95.36;100447.28;6740585;19;2830378;-57
2021/09/08 01:43:26;;;;;;;;;25.00;23.50;;;;;10.06;95.20;100444.91;6742611;19;2846034;-57
2021/09/08 01:45:54;;;;;;;;;26.00;22.00;;;;;10.12;95.46;100443.72;6741999;19;2498092;-57
2021/09/08 01:48:21;;;;;;;;;23.00;22.00;;;;;10.22;95.76;100447.72;6742957;19;2498126;-57
2021/09/08 01:50:50;;;;;;;;;29.00;24.00;;;;;10.26;95.51;100443.06;6740918;19;2850169;-56
2021/09/08 01:53:19;;;;;;;;;33.00;27.00;;;;;10.14;95.92;100441.84;6742731;19;2856447;-57
2021/09/08 01:55:48;;;;;;;;;27.50;20.50;;;;;10.31;95.43;100439.25;6777044;19;2848113;-57
2021/09/08 01:58:17;;;;;;;;;28.50;21.50;;;;;10.25;96.04;100436.81;6741025;19;2852289;-57
2021/09/08 02:00:45;;;;;;;;;26.50;24.50;;;;;10.31;95.23;100423.13;6745488;19;2843987;-58
2021/09/08 02:03:14;;;;;;;;;27.00;22.00;;;;;10.05;95.59;100439.59;6742926;19;2832466;-57
2021/09/08 02:05:42;;;;;;;;;27.00;23.50;;;;;10.17;95.40;100433.66;6741257;19;2498108;-57
2021/09/08 02:08:10;;;;;;;;;24.50;24.00;;;;;10.07;96.75;100443.06;6742340;19;2496088;-57
2021/09/08 02:10:38;;;;;;;;;26.50;22.50;;;;;10.22;95.50;100442.34;6743405;19;2848118;-57
2021/09/08 02:13:07;;;;;;;;;27.00;23.00;;;;;10.09;96.56;100438.50;6742388;19;2834561;-57
2021/09/08 02:15:36;;;;;;;;;25.50;23.50;;;;;10.23;95.54;100433.34;6743035;19;2846070;-57
2021/09/08 02:18:04;;;;;;;;;20.00;18.00;;;;;10.18;95.55;100434.50;6749651;19;2825250;-57
2021/09/08 02:20:32;;;;;;;;;26.00;23.00;;;;;10.40;95.08;100437.06;6741369;19;2846015;-58
2021/09/08 02:23:01;;;;;;;;;22.50;21.00;;;;;9.94;96.40;100439.22;6742765;19;2848090;-58
2021/09/08 02:25:29;;;;;;;;;27.50;22.00;;;;;9.73;97.63;100443.78;6741764;19;2831456;-57
2021/09/08 02:27:57;;;;;;;;;23.50;21.00;;;;;9.71;96.49;100445.66;6742793;19;2498191;-57
2021/09/08 02:30:24;;;;;;;;;23.50;21.00;;;;;9.28;96.31;100435.06;6745392;19;2498088;-57
2021/09/08 02:32:53;;;;;;;;;26.00;24.00;;;;;9.14;97.47;100441.03;6745125;19;2832462;-57
2021/09/08 02:35:21;;;;;;;;;24.00;23.00;;;;;9.42;96.53;100440.66;6744451;19;2854344;-57
2021/09/08 02:37:49;;;;;;;;;24.50;24.50;;;;;9.48;96.54;100444.00;6740630;19;2498096;-57
2021/09/08 02:40:17;;;;;;;;;23.50;23.50;;;;;9.47;95.64;100442.28;6745715;19;2845010;-57
2021/09/08 02:42:46;;;;;;;;;26.00;22.00;;;;;9.30;96.18;100437.69;6744063;19;2839789;-57
2021/09/08 02:45:14;;;;;;;;;24.50;21.50;;;;;9.42;97.29;100439.78;6741285;19;2847104;-57
2021/09/08 02:47:43;;;;;;;;;26.00;20.50;;;;;9.51;96.90;100441.22;6740723;19;2843944;-57
2021/09/08 02:50:12;;;;;;;;;25.00;23.00;;;;;9.43;97.67;100439.75;6744605;19;2844953;-57
2021/09/08 02:52:40;;;;;;;;;21.50;21.50;;;;;9.51;96.97;100439.41;6741438;19;2848130;-57
2021/09/08 02:55:09;;;;;;;;;25.00;22.00;;;;;9.71;96.92;100441.16;6741963;19;2848273;-58
2021/09/08 02:57:37;;;;;;;;;34.50;28.50;;;;;9.76;95.86;100439.13;6745926;19;2498136;-58
2021/09/08 03:00:06;;;;;;;;;24.50;22.00;;;;;9.60;96.78;100443.47;6750167;19;2829345;-57
2021/09/08 03:02:35;;;;;;;;;28.50;22.50;;;;;9.77;96.04;100440.91;6749618;19;2845014;-57
2021/09/08 03:05:04;;;;;;;;;24.00;24.00;;;;;9.49;96.99;100446.63;6747604;19;2836632;-57
2021/09/08 03:07:32;;;;;;;;;25.50;23.00;;;;;9.41;98.15;100444.28;6746039;19;2498096;-57
2021/09/08 03:10:01;;;;;;;;;25.00;23.00;;;;;9.57;97.65;100446.28;6749766;19;2839745;-57
2021/09/08 03:12:29;;;;;;;;;27.50;25.00;;;;;9.38;97.38;100436.41;6748120;19;2851283;-57
2021/09/08 03:14:58;;;;;;;;;22.50;21.00;;;;;9.04;98.48;100441.50;6750005;19;2838739;-57
2021/09/08 03:17:26;;;;;;;;;21.50;19.00;;;;;8.64;99.41;100441.38;6751384;19;2835587;-57
2021/09/08 03:19:54;;;;;;;;;28.50;24.00;;;;;8.48;100.00;100442.94;6749625;19;2845995;-56
2021/09/08 03:22:23;;;;;;;;;25.00;23.50;;;;;8.35;100.00;100446.06;6747018;19;2841836;-57
2021/09/08 03:24:51;;;;;;;;;27.00;23.50;;;;;8.31;100.00;100449.78;6747408;19;2848113;-57
2021/09/08 03:27:19;;;;;;;;;26.00;23.00;;;;;7.99;100.00;100448.38;6748694;19;2498227;-57
2021/09/08 03:29:46;;;;;;;;;25.50;20.00;;;;;8.25;100.00;100449.19;6748445;19;2498136;-56
2021/09/08 03:32:15;;;;;;;;;28.50;23.00;;;;;9.05;97.71;100446.75;6747206;19;2846019;-57
2021/09/08 03:34:43;;;;;;;;;26.50;24.00;;;;;9.04;97.22;100450.41;6751783;19;2848089;-57
2021/09/08 03:37:11;;;;;;;;;28.50;26.00;;;;;8.75;98.41;100451.63;6750117;19;2847061;-57
2021/09/08 03:39:39;;;;;;;;;25.50;23.00;;;;;8.83;98.45;100446.81;6749099;19;2498127;-57
2021/09/08 03:42:07;;;;;;;;;24.00;21.00;;;;;9.04;97.51;100446.84;6753691;19;2819986;-58
2021/09/08 03:44:35;;;;;;;;;27.00;26.00;;;;;8.90;98.53;100452.78;6746138;19;2839753;-57
2021/09/08 03:47:03;;;;;;;;;29.00;25.50;;;;;9.07;98.75;100457.44;6744986;19;2498096;-57
2021/09/08 03:49:36;;;;;;;;;33.00;28.00;;;;;9.14;98.42;100441.03;6750110;19;2850529;-57
2021/09/08 03:52:04;;;;;;;;;37.00;27.50;;;;;9.27;98.01;100445.81;6748629;19;2855466;-57
2021/09/08 03:54:34;;;;;;;;;27.00;22.00;;;;;9.38;96.98;100440.88;6748182;19;2850178;-57
2021/09/08 03:57:03;;;;;;;;;28.00;24.00;;;;;9.09;97.91;100437.69;6747708;19;2837749;-57
2021/09/08 03:59:32;;;;;;;;;29.00;23.00;;;;;8.75;99.45;100432.88;6748635;19;2852248;-57
2021/09/08 04:02:00;;;;;;;;;31.00;23.50;;;;;9.04;99.13;100441.50;6748609;19;2498211;-57
2021/09/08 04:04:29;;;;;;;;;29.50;25.50;;;;;8.95;99.34;100446.31;6748342;19;2830410;-57
2021/09/08 04:06:58;;;;;;;;;30.50;26.50;;;;;9.09;99.04;100445.72;6747585;19;2850232;-57
2021/09/08 04:09:32;;;;;;;;;31.50;26.50;;;;;9.22;97.84;100448.72;6746611;19;2853318;-57
2021/09/08 04:12:02;;;;;;;;;20.80;8.80;;;;;9.07;97.27;100450.25;6777943;19;2786635;-57
2021/09/08 04:14:31;;;;;;;;;34.00;27.00;;;;;8.62;97.47;100445.03;6748178;19;2849167;-57
2021/09/08 04:16:59;;;;;;;;;29.00;24.50;;;;;8.37;99.89;100454.03;6744896;19;2851247;-57
2021/09/08 04:19:28;;;;;;;;;27.00;22.00;;;;;8.53;99.30;100448.94;6746413;19;2842909;-57
2021/09/08 04:21:57;;;;;;;;;30.33;23.00;;;;;8.28;99.10;100454.41;6746337;19;2859532;-57
2021/09/08 04:24:25;;;;;;;;;29.50;27.00;;;;;8.07;99.69;100456.97;6779147;19;2498088;-57
2021/09/08 04:26:53;;;;;;;;;31.00;24.00;;;;;8.08;99.58;100460.53;6745597;19;2498582;-56
2021/09/08 04:29:21;;;;;;;;;22.00;21.50;;;;;8.10;99.20;100467.56;6747015;19;2841943;-58
2021/09/08 04:31:50;;;;;;;;;31.50;23.50;;;;;8.34;98.14;100462.19;6748702;19;2843963;-57
2021/09/08 04:34:18;;;;;;;;;22.00;20.00;;;;;8.38;97.12;100471.84;6747804;19;3571010;-57
2021/09/08 04:36:46;;;;;;;;;22.00;18.00;;;;;8.54;97.71;100478.34;6750388;19;2830432;-57
2021/09/08 04:39:14;;;;;;;;;26.50;24.00;;;;;8.46;98.18;100475.09;6746374;19;2498104;-56
2021/09/08 04:41:42;;;;;;;;;22.50;21.00;;;;;8.59;98.91;100475.50;6744657;19;2839753;-58
2021/09/08 04:44:10;;;;;;;;;29.00;26.00;;;;;9.09;97.28;100474.31;6743721;19;2498183;-55
2021/09/08 04:46:38;;;;;;;;;27.00;24.00;;;;;9.17;96.09;100472.19;6744138;19;2847041;-53
2021/09/08 04:49:07;;;;;;;;;21.50;21.50;;;;;9.23;96.24;100477.25;6748538;19;2839745;-55
2021/09/08 04:51:35;;;;;;;;;32.00;27.00;;;;;9.35;95.79;100478.56;6744977;19;2851203;-55
2021/09/08 04:54:04;;;;;;;;;28.00;23.00;;;;;9.32;96.42;100474.19;6748480;19;2842886;-55
2021/09/08 04:56:32;;;;;;;;;30.00;26.50;;;;;9.04;98.53;100482.53;6748130;19;2848117;-55
2021/09/08 04:59:01;;;;;;;;;26.00;21.00;;;;;9.01;99.33;100482.69;6747939;19;2843955;-55
2021/09/08 05:01:30;;;;;;;;;25.50;24.00;;;;;9.73;96.82;100492.91;6746165;19;2852292;-52
2021/09/08 05:03:58;;;;;;;;;29.67;24.67;;;;;9.60;93.95;100494.41;6744308;19;3569959;-54
2021/09/08 05:06:27;;;;;;;;;23.50;21.50;;;;;9.72;94.42;100496.53;6743702;19;2846003;-53
2021/09/08 05:08:55;;;;;;;;;27.00;24.00;;;;;9.29;95.12;100501.09;6744415;19;2504379;-53
2021/09/08 05:11:24;;;;;;;;;27.50;26.00;;;;;9.48;95.04;100495.84;6747396;19;2841832;-55
2021/09/08 05:13:52;;;;;;;;;29.00;25.00;;;;;10.00;92.93;100506.00;6746670;19;2852245;-53
2021/09/08 05:16:21;;;;;;;;;31.33;26.33;;;;;10.10;92.61;100507.31;6744452;19;2851241;-55
2021/09/08 05:18:50;;;;;;;;;28.00;26.00;;;;;9.94;94.24;100501.78;6775251;19;2840873;-57
2021/09/08 05:21:18;;;;;;;;;31.00;26.50;;;;;10.00;95.13;100506.00;6742050;19;2843959;-55
2021/09/08 05:23:47;;;;;;;;;30.00;27.00;;;;;10.26;94.74;100502.97;6742819;19;2848086;-54
2021/09/08 05:26:15;;;;;;;;;26.50;26.00;;;;;10.65;92.88;100507.41;6744449;19;2835658;-55
2021/09/08 05:28:45;;;;;;;;;39.00;28.67;;;;;10.76;93.25;100512.25;6742972;19;3627325;-54
2021/09/08 05:31:14;;;;;;;;;26.00;22.00;;;;;10.79;92.64;100516.59;6777313;19;2837666;-54
2021/09/08 05:33:42;;;;;;;;;26.50;24.00;;;;;11.13;91.19;100519.34;6746034;19;2850260;-55
2021/09/08 05:36:11;;;;;;;;;28.00;25.50;;;;;11.52;88.47;100518.25;6746812;19;2849167;-56
2021/09/08 05:38:40;;;;;;;;;33.00;31.67;;;;;11.49;88.83;100528.31;6745926;19;2855521;-55
2021/09/08 05:41:10;;;;;;;;;28.00;26.50;;;;;11.40;90.23;100519.78;6774420;19;2839785;-53
2021/09/08 05:43:39;;;;;;;;;26.67;25.00;;;;;11.79;87.61;100510.53;6741410;19;2847094;-55
2021/09/08 05:46:08;;;;;;;;;25.00;24.00;;;;;12.02;86.96;100509.34;6775574;19;2843968;-53
2021/09/08 05:48:36;;;;;;;;;23.00;20.00;;;;;12.17;86.55;100504.97;6747564;19;2831420;-53
2021/09/08 05:51:05;;;;;;;;;31.33;26.67;;;;;12.56;84.96;100509.06;6746868;19;2858521;-55
2021/09/08 05:53:32;;;;;;;;;22.00;20.50;;;;;13.08;83.07;100508.75;6778661;19;2496017;-55
2021/09/08 05:56:01;;;;;;;;;27.50;26.00;;;;;13.59;80.57;100511.16;6743770;19;2850189;-55
2021/09/08 05:58:28;;;;;;;;;24.50;24.50;;;;;13.37;81.29;100514.25;6741195;19;2498140;-55
2021/09/08 06:00:56;;;;;;;;;30.50;26.00;;;;;13.41;82.16;100505.03;6745957;19;2498128;-55
2021/09/08 06:03:25;;;;;;;;;26.00;21.00;;;;;14.26;78.59;100514.19;6742338;19;2826208;-57
2021/09/08 06:05:54;;;;;;;;;27.50;25.50;;;;;14.52;78.08;100519.75;6742476;19;2852308;-55
2021/09/08 06:08:22;;;;;;;;;24.00;22.50;;;;;14.38;78.63;100518.81;6743990;19;2833567;-56
2021/09/08 06:10:51;;;;;;;;;25.50;24.50;;;;;14.40;78.02;100516.00;6743237;19;2847080;-57
2021/09/08 06:13:19;;;;;;;;;23.33;23.00;;;;;15.48;74.22;100518.75;6748025;19;3579339;-56
2021/09/08 06:15:49;;;;;;;;;21.67;21.33;;;;;16.48;69.75;100516.25;6740899;19;2847052;-56
2021/09/08 06:18:18;;;;;;;;;20.00;19.00;;;;;18.16;64.43;100522.44;6779955;19;3576273;-57
2021/09/08 06:20:46;;;;;;;;;21.50;21.50;;;;;16.33;69.33;100524.53;6740580;19;2832461;-55
2021/09/08 06:23:16;;;;;;;;;22.50;22.00;;;;;15.14;76.05;100517.50;6742494;19;2827258;-57
2021/09/08 06:25:44;;;;;;;;;25.00;22.00;;;;;14.84;77.14;100523.94;6741668;19;2836624;-55
2021/09/08 06:28:13;;;;;;;;;24.00;21.00;;;;;16.13;72.28;100522.41;6740754;19;2845998;-56
2021/09/08 06:30:42;;;;;;;;;25.00;22.00;;;;;15.76;73.67;100514.16;6742398;19;2835625;-57
2021/09/08 06:33:10;;;;;;;;;19.00;17.00;;;;;19.40;62.85;100535.84;6746511;19;2826632;-57
2021/09/08 06:35:38;;;;;;;;;19.00;19.00;;;;;21.85;53.80;100536.63;6749826;19;2836667;-57
2021/09/08 06:38:07;;;;;;;;;22.00;22.00;;;;;23.07;49.93;100545.72;6752183;19;3583481;-57
2021/09/08 06:40:35;;;;;;;;;20.50;19.00;;;;;20.29;57.53;100535.47;6749142;19;2822065;-57
2021/09/08 06:43:04;;;;;;;;;21.00;21.00;;;;;15.49;73.88;100522.34;6747716;19;2841832;-57
2021/09/08 06:45:33;;;;;;;;;20.00;20.00;;;;;15.31;75.13;100527.16;6752035;19;2826328;-56
2021/09/08 06:48:01;;;;;;;;;24.00;22.00;;;;;15.28;76.31;100524.66;6746857;19;2842215;-55
2021/09/08 06:50:30;;;;;;;;;26.50;23.50;;;;;15.64;75.45;100521.28;6748772;19;2840834;-56
2021/09/08 06:52:58;;;;;;;;;23.00;21.00;;;;;15.82;74.19;100527.25;6745833;19;2833527;-56
2021/09/08 06:55:27;;;;;;;;;23.50;21.00;;;;;15.86;73.99;100528.78;6753266;19;2833622;-55
2021/09/08 06:57:55;;;;;;;;;25.33;25.00;;;;;16.20;73.30;100532.69;6757637;19;3583458;-57
2021/09/08 07:00:24;;;;;;;;;21.50;21.50;;;;;16.34;73.09;100528.97;6747361;19;2843912;-56
2021/09/08 07:02:53;;;;;;;;;29.00;23.67;;;;;16.09;73.93;100526.28;6753583;19;2849159;-57
2021/09/08 07:05:24;;;;;;;;;21.00;21.00;;;;;16.05;73.95;100519.38;6784278;19;2843959;-57
2021/09/08 07:07:52;;;;;;;;;22.50;21.00;;;;;16.84;71.29;100534.44;6753112;19;2835570;-57
2021/09/08 07:10:21;;;;;;;;;22.00;19.00;;;;;17.17;70.37;100531.03;6750740;19;2831440;-56
2021/09/08 07:12:50;;;;;;;;;25.00;23.50;;;;;17.09;70.32;100528.03;6749011;19;2834584;-54
2021/09/08 07:15:19;;;;;;;;;18.33;17.00;;;;;17.36;69.52;100537.78;6756807;19;3555369;-54
2021/09/08 07:17:47;;;;;;;;;18.00;18.00;;;;;17.61;68.84;100540.31;6784892;19;2831412;-52
2021/09/08 07:20:16;;;;;;;;;15.33;15.00;;;;;17.81;67.43;100538.81;6750815;19;3540759;-54
2021/09/08 07:22:44;;;;;;;;;19.00;19.00;;;;;22.94;52.77;100551.53;6750878;19;2829344;-56
2021/09/08 07:25:13;;;;;;;;;22.50;20.50;;;;;20.29;57.42;100552.69;6750813;19;2828287;-56
2021/09/08 07:27:41;;;;;;;;;21.50;18.50;;;;;18.54;65.05;100544.84;6752219;19;2832489;-56
2021/09/08 07:30:10;;;;;;;;;17.00;17.00;;;;;18.18;64.01;100544.94;6756856;19;2485628;-56
2021/09/08 07:32:39;;;;;;;;;17.33;17.33;;;;;17.87;65.31;100548.34;6750283;19;2842545;-56
2021/09/08 07:35:08;;;;;;;;;15.00;15.00;;;;;18.33;64.12;100544.72;6790389;19;2808492;-56
2021/09/08 07:37:37;;;;;;;;;19.67;17.00;;;;;18.26;65.60;100543.47;6752456;19;3573045;-56
2021/09/08 07:40:08;;;;;;;;;23.50;21.00;;;;;19.08;62.83;100547.59;6750274;19;2493934;-55
2021/09/08 07:42:38;;;;;;;;;21.50;19.50;;;;;18.99;62.49;100551.09;6751664;19;2828287;-56
2021/09/08 07:45:07;;;;;;;;;24.00;19.50;;;;;19.22;61.94;100553.72;6749889;19;2823079;-56
2021/09/08 07:47:37;;;;;;;;;19.50;19.00;;;;;19.33;60.98;100553.72;6752301;19;2823075;-51
2021/09/08 07:50:06;;;;;;;;;18.50;17.00;;;;;19.68;60.19;100556.19;6747705;19;2833499;-54
2021/09/08 07:52:35;;;;;;;;;21.00;19.50;;;;;20.09;58.88;100550.84;6749815;19;2823087;-55
2021/09/08 07:55:06;;;;;;;;;19.00;18.00;;;;;20.23;59.03;100555.97;6751279;19;2827246;-53
2021/09/08 07:57:35;;;;;;;;;21.00;19.00;;;;;19.42;60.59;100558.38;6752149;19;2489814;-55
2021/09/08 08:00:04;;;;;;;;;22.50;17.00;;;;;19.97;58.83;100551.94;6782442;19;2843943;-52
2021/09/08 08:02:43;;;;;;;;;19.00;17.50;;;;;20.37;57.31;100561.06;6752047;19;2837701;-55
2021/09/08 08:05:14;;;;;;;;;20.33;17.33;;;;;19.86;59.03;100553.72;6755159;19;2488138;-54
2021/09/08 08:07:47;;;;;;;;;17.00;17.00;;;;;20.42;57.43;100551.63;6782930;19;2841880;-53
2021/09/08 08:10:17;;;;;;;;;15.33;15.33;;;;;20.49;57.52;100552.81;6753205;19;2493941;-53
2021/09/08 08:12:46;;;;;;;;;18.00;16.00;;;;;20.46;57.91;100558.50;6780296;19;2823099;-53
2021/09/08 08:15:17;;;;;;;;;20.00;19.00;;;;;20.33;56.82;100553.31;6749897;19;2831404;-55
2021/09/08 08:17:46;;;;;;;;;18.50;15.50;;;;;20.94;54.60;100555.13;6749517;19;2831444;-53
2021/09/08 08:20:15;;;;;;;;;21.67;16.67;;;;;20.82;54.49;100557.94;6753507;19;3571013;-50
2021/09/08 08:22:46;;;;;;;;;19.00;17.50;;;;;20.63;54.95;100557.91;6747750;19;2835602;-54
2021/09/08 08:25:19;;;;;;;;;15.33;15.33;;;;;21.03;53.84;100557.00;6751419;19;2489755;-53
2021/09/08 08:27:48;;;;;;;;;18.67;15.00;;;;;21.58;54.29;100565.56;6787463;19;2496020;-53
2021/09/08 08:30:17;;;;;;;;;20.50;20.50;;;;;21.46;53.26;100558.56;6783074;19;2837733;-53
2021/09/08 08:32:46;;;;;;;;;16.33;16.33;;;;;21.99;52.44;100565.41;6758671;19;3551179;-52
2021/09/08 08:35:16;;;;;;;;;23.00;19.33;;;;;21.55;53.00;100563.13;6788048;19;2481422;-54
2021/09/08 08:37:49;;;;;;;;;19.00;18.00;;;;;21.86;51.34;100561.09;6779227;19;2827265;-54
2021/09/08 08:40:20;;;;;;;;;16.50;15.50;;;;;22.48;50.89;100567.00;6748233;19;2814754;-55
2021/09/08 08:42:51;;;;;;;;;13.00;13.00;;;;;22.29;49.92;100565.22;6747292;19;3528279;-54
2021/09/08 08:45:19;;;;;;;;;13.00;12.67;;;;;22.23;51.61;100579.50;6746749;19;3526279;-53
2021/09/08 08:47:50;;;;;;;;;12.67;12.00;;;;;21.90;49.63;100568.00;6745148;19;3530374;-55
2021/09/08 08:50:19;;;;;;;;;15.67;14.00;;;;;21.89;52.33;100563.53;6743402;19;3530351;-54
2021/09/08 08:52:48;;;;;;;;;14.00;12.33;;;;;22.29;52.40;100572.56;6746880;19;3525158;-56
2021/09/08 08:55:16;;;;;;;;;18.00;15.00;;;;;22.55;51.68;100561.81;6744851;19;2808530;-55
2021/09/08 08:57:48;;;;;;;;;15.67;12.33;;;;;22.88;50.36;100576.81;6751062;19;2485608;-52
2021/09/08 09:00:19;;;;;;;;;15.33;14.00;;;;;22.98;49.86;100574.88;6780962;19;3534513;-55
2021/09/08 09:02:51;;;;;;;;;14.00;14.00;;;;;23.06;48.49;100576.00;6748131;19;2804338;-53
2021/09/08 09:05:39;;;;;;;;;14.00;12.00;;;;;22.49;47.84;100574.22;6746907;19;3520975;-55
2021/09/08 09:08:10;;;;;;;;;14.67;14.67;;;;;22.68;47.35;100575.16;6788352;19;2790836;-54
2021/09/08 09:10:39;;;;;;;;;18.00;18.00;;;;;23.24;47.00;100574.16;6781328;19;2830379;-51
2021/09/08 09:13:09;;;;;;;;;18.00;16.67;;;;;22.74;46.29;100567.19;6751689;19;2483517;-52
2021/09/08 09:15:38;;;;;;;;;14.67;12.00;;;;;22.33;46.61;100557.59;6780770;19;2784547;-54
2021/09/08 09:18:07;;;;;;;;;12.33;12.33;;;;;23.22;46.48;100566.09;6779605;19;3516802;-54
2021/09/08 09:20:39;;;;;;;;;12.67;11.67;;;;;23.37;46.15;100560.06;6744640;19;3525134;-55
2021/09/08 09:23:08;;;;;;;;;18.00;14.50;;;;;22.90;45.01;100561.06;6780440;19;2820999;-54
2021/09/08 09:25:39;;;;;;;;;14.00;12.00;;;;;22.91;46.83;100551.84;6743684;19;3527340;-55
2021/09/08 09:28:09;;;;;;;;;12.33;10.00;;;;;23.12;44.60;100554.34;6778633;19;3512643;-53
2021/09/08 09:30:41;;;;;;;;;12.00;12.00;;;;;23.37;45.90;100558.19;6743932;19;3520972;-55
2021/09/08 09:33:30;;;;;;;;;13.00;13.00;;;;;23.63;44.00;100554.66;6779639;19;3519962;-51
2021/09/08 09:36:21;;;;;;;;;13.33;13.33;;;;;23.79;44.55;100546.59;6746622;19;3530445;-52
2021/09/08 09:38:53;;;;;;;;;15.67;15.67;;;;;23.50;44.97;100541.34;6745599;19;3538687;-53
2021/09/08 09:41:35;;;;;;;;;17.00;14.00;;;;;23.85;44.55;100540.47;6747627;19;3543949;-52
2021/09/08 09:44:09;;;;;;;;;12.67;12.00;;;;;23.62;44.47;100539.25;6745609;19;3532480;-53
2021/09/08 09:46:46;;;;;;;;;15.00;14.00;;;;;23.76;44.83;100537.84;6750637;19;2483526;-54
2021/09/08 09:49:15;;;;;;;;;13.67;13.67;;;;;24.03;43.79;100529.47;6781890;19;3525174;-53
2021/09/08 09:51:43;;;;;;;;;13.33;13.00;;;;;24.03;43.68;100525.88;6745190;19;3513739;-53
2021/09/08 09:54:15;;;;;;;;;21.00;18.67;;;;;24.05;43.77;100530.16;6750576;19;3563698;-53
2021/09/08 09:56:44;;;;;;;;;15.33;13.67;;;;;24.02;43.87;100518.66;6746308;19;3531380;-53
2021/09/08 09:59:13;;;;;;;;;15.00;14.00;;;;;24.57;43.07;100532.06;6744863;19;2804353;-53
2021/09/08 10:01:43;;;;;;;;;5.60;5.60;;;;;23.16;44.54;100522.00;6774912;19;2741880;-51
2021/09/08 10:04:12;;;;;;;;;11.00;11.00;;;;;24.21;44.66;100512.94;6788393;19;2787688;-54
2021/09/08 10:06:43;;;;;;;;;13.50;12.00;;;;;24.18;42.84;100518.75;6794072;19;2668922;-53
2021/09/08 10:09:18;;;;;;;;;17.00;12.67;;;;;24.73;42.32;100518.38;6792779;19;2805371;-53
2021/09/08 10:11:51;;;;;;;;;3.67;3.67;;;;;24.88;41.32;100520.47;6786267;19;2732461;-55
2021/09/08 10:14:27;;;;;;;;;12.67;12.67;;;;;24.42;41.43;100509.81;6787015;19;2481426;-54
2021/09/08 10:17:02;;;;;;;;;13.00;12.33;;;;;24.53;40.94;100519.66;6781043;19;3520995;-54
2021/09/08 10:19:31;;;;;;;;;12.67;11.00;;;;;24.93;39.97;100509.84;6748837;19;3514741;-55
2021/09/08 10:22:12;;;;;;;;;14.33;11.00;;;;;24.85;41.96;100505.19;6746823;19;3522050;-54
2021/09/08 10:24:47;;;;;;;;;14.67;12.67;;;;;24.70;39.91;100496.75;6790858;19;3533506;-55
2021/09/08 10:27:31;;;;;;;;;14.00;12.33;;;;;25.21;40.24;100495.88;6787063;19;3518988;-53
2021/09/08 10:30:03;;;;;;;;;13.67;12.67;;;;;24.74;38.97;100506.34;6763402;19;2789775;-52
2021/09/08 10:32:32;;;;;;;;;12.00;12.00;;;;;24.69;38.78;100500.50;6788382;19;3522037;-53
2021/09/08 10:35:20;;;;;;;;;12.00;12.00;;;;;25.03;38.08;100494.06;6789020;19;3512639;-56
2021/09/08 10:37:54;;;;;;;;;15.33;12.33;;;;;25.12;38.73;100487.59;6784125;19;3532425;-54
2021/09/08 10:40:27;;;;;;;;;12.67;11.00;;;;;25.62;38.92;100491.25;6752931;19;3511621;-54
2021/09/08 10:43:00;;;;;;;;;13.00;11.00;;;;;25.67;37.53;100488.81;6749598;19;3501193;-55
2021/09/08 10:45:32;;;;;;;;;7.20;7.20;;;;;25.47;37.18;100485.56;6815607;19;2737662;-54
2021/09/08 10:48:03;;;;;;;;;10.00;10.00;;;;;25.53;36.28;100487.63;6794315;19;2787663;-55
2021/09/08 10:50:44;;;;;;;;;11.00;9.67;;;;;25.21;37.56;100473.88;6793574;19;2773103;-53
2021/09/08 10:53:22;;;;;;;;;14.83;11.83;;;;;25.33;38.49;100472.50;6814821;19;2795023;-52
2021/09/08 10:55:53;;;;;;;;;12.33;10.00;;;;;25.57;35.86;100475.28;6784607;19;3511585;-54
2021/09/08 10:58:21;;;;;;;;;11.00;11.00;;;;;25.54;34.62;100469.22;6782448;19;3518885;-51
2021/09/08 11:00:50;;;;;;;;;11.67;10.67;;;;;25.24;36.61;100471.63;6782631;19;2783505;-52
2021/09/08 11:03:19;;;;;;;;;11.00;9.67;;;;;24.99;36.44;100465.22;6785254;19;2774315;-50
2021/09/08 11:05:53;;;;;;;;;10.00;10.00;;;;;25.51;36.05;100478.69;6796999;19;2796067;-48
2021/09/08 11:08:40;;;;;;;;;10.60;7.20;;;;;25.56;35.23;100476.28;6816475;19;2748130;-47